createdAt,value
2022-11-16T00:01:19.411Z,6.64
2022-11-16T00:03:52.427Z,6.47
2022-11-16T00:06:23.681Z,6.40
2022-11-16T00:09:16.657Z,6.28
2022-11-16T00:11:46.365Z,6.54
2022-11-16T00:14:14.847Z,6.59
2022-11-16T00:16:43.646Z,6.65
2022-11-16T00:19:13.834Z,6.70
2022-11-16T00:21:42.538Z,6.60
2022-11-16T00:24:14.793Z,6.66
2022-11-16T00:26:43.889Z,6.47
2022-11-16T00:29:16.477Z,6.35
2022-11-16T00:31:46.311Z,6.42
2022-11-16T00:34:16.561Z,6.40
2022-11-16T00:36:45.867Z,6.37
2022-11-16T00:39:15.993Z,6.48
2022-11-16T00:41:45.022Z,6.46
2022-11-16T00:44:13.790Z,6.33
2022-11-16T00:46:42.983Z,6.34
2022-11-16T00:49:11.870Z,6.41
2022-11-16T00:51:42.071Z,6.32
2022-11-16T00:54:11.564Z,6.48
2022-11-16T00:56:41.606Z,6.60
2022-11-16T00:59:10.205Z,6.65
2022-11-16T01:01:40.051Z,6.64
2022-11-16T01:04:08.725Z,6.60
2022-11-16T01:06:37.829Z,6.66
2022-11-16T01:09:07.859Z,6.35
2022-11-16T01:11:54.231Z,6.32
2022-11-16T01:14:22.898Z,6.43
2022-11-16T01:16:51.984Z,6.40
2022-11-16T01:19:22.540Z,6.19
2022-11-16T01:21:51.122Z,6.47
2022-11-16T01:24:21.048Z,6.51
2022-11-16T01:26:49.482Z,6.61
2022-11-16T01:29:18.732Z,6.74
2022-11-16T01:31:53.910Z,6.66
2022-11-16T01:34:22.653Z,6.59
2022-11-16T01:36:52.345Z,6.47
2022-11-16T01:39:22.511Z,6.49
2022-11-16T01:41:55.113Z,6.51
2022-11-16T01:45:09.292Z,6.68
2022-11-16T01:47:38.293Z,6.51
2022-11-16T01:50:14.363Z,6.64
2022-11-16T01:52:53.472Z,6.55
2022-11-16T01:55:25.912Z,6.28
2022-11-16T01:58:23.089Z,6.20
2022-11-16T02:00:57.819Z,6.49
2022-11-16T02:03:41.482Z,6.42
2022-11-16T02:06:31.638Z,6.49
2022-11-16T02:09:58.263Z,6.43
2022-11-16T02:13:07.942Z,6.40
2022-11-16T02:15:50.471Z,6.46
2022-11-16T02:18:38.768Z,6.69
2022-11-16T02:21:34.183Z,6.62
2022-11-16T02:24:44.789Z,6.64
2022-11-16T02:28:04.504Z,6.48
2022-11-16T02:30:37.537Z,6.56
2022-11-16T02:33:13.786Z,6.53
2022-11-16T02:35:48.681Z,6.27
2022-11-16T02:38:22.468Z,6.52
2022-11-16T02:40:58.746Z,6.61
2022-11-16T02:43:36.767Z,6.82
2022-11-16T02:46:17.733Z,6.76
2022-11-16T02:48:54.323Z,6.38
2022-11-16T02:51:25.604Z,6.52
2022-11-16T02:54:04.040Z,6.59
2022-11-16T02:56:48.790Z,6.64
2022-11-16T02:59:22.314Z,6.61
2022-11-16T03:02:01.077Z,6.35
2022-11-16T03:04:38.870Z,6.34
2022-11-16T03:07:13.836Z,6.54
2022-11-16T03:09:45.712Z,6.50
2022-11-16T03:12:22.660Z,6.54
2022-11-16T03:14:56.572Z,6.40
2022-11-16T03:17:32.839Z,6.63
2022-11-16T03:20:07.380Z,6.62
2022-11-16T03:22:43.287Z,6.57
2022-11-16T03:25:15.616Z,6.65
2022-11-16T03:27:55.538Z,6.70
2022-11-16T03:30:30.402Z,6.69
2022-11-16T03:33:13.119Z,6.67
2022-11-16T03:35:50.530Z,6.47
2022-11-16T03:38:24.149Z,6.63
2022-11-16T03:40:59.365Z,6.52
2022-11-16T03:43:29.195Z,6.59
2022-11-16T03:45:59.020Z,6.69
2022-11-16T03:48:36.715Z,6.80
2022-11-16T03:51:12.335Z,6.71
2022-11-16T03:53:42.814Z,6.93
2022-11-16T03:56:13.882Z,6.93
2022-11-16T03:58:42.521Z,6.92
2022-11-16T04:01:11.191Z,7.01
2022-11-16T04:03:42.262Z,6.98
2022-11-16T04:06:29.940Z,6.78
2022-11-16T04:09:24.556Z,6.70
2022-11-16T04:12:11.319Z,6.52
2022-11-16T04:14:58.274Z,6.51
2022-11-16T04:17:47.370Z,6.59
2022-11-16T04:20:35.858Z,6.46
2022-11-16T04:23:27.607Z,6.54
2022-11-16T04:25:57.548Z,6.68
2022-11-16T04:28:31.754Z,6.64
2022-11-16T04:31:23.358Z,6.57
2022-11-16T04:34:35.779Z,6.49
2022-11-16T04:37:37.773Z,6.65
2022-11-16T04:40:09.570Z,6.75
2022-11-16T04:42:38.180Z,6.65
2022-11-16T04:45:25.916Z,6.65
2022-11-16T04:47:55.535Z,6.74
2022-11-16T04:50:29.421Z,6.63
2022-11-16T04:53:00.365Z,6.69
2022-11-16T04:55:30.054Z,6.62
2022-11-16T04:58:00.359Z,6.59
2022-11-16T05:00:29.530Z,6.58
2022-11-16T05:03:01.204Z,6.63
2022-11-16T05:05:31.110Z,6.56
2022-11-16T05:08:02.518Z,6.65
2022-11-16T05:10:33.362Z,6.70
2022-11-16T05:13:02.533Z,6.73
2022-11-16T05:15:31.188Z,6.70
2022-11-16T05:18:01.345Z,6.48
2022-11-16T05:20:48.721Z,6.66
2022-11-16T05:23:36.604Z,6.75
2022-11-16T05:26:10.728Z,6.70
2022-11-16T05:28:40.074Z,6.86
2022-11-16T05:31:10.529Z,6.82
2022-11-16T05:33:39.159Z,6.57
2022-11-16T05:36:09.531Z,6.82
2022-11-16T05:38:39.708Z,6.76
2022-11-16T05:41:08.314Z,6.99
2022-11-16T05:43:36.968Z,7.01
2022-11-16T05:46:15.006Z,6.88
2022-11-16T05:48:43.619Z,6.83
2022-11-16T05:51:12.300Z,6.84
2022-11-16T05:53:42.705Z,6.72
2022-11-16T05:56:14.304Z,6.82
2022-11-16T05:58:45.247Z,6.73
2022-11-16T06:01:14.096Z,6.81
2022-11-16T06:03:43.456Z,6.72
2022-11-16T06:06:12.880Z,6.80
2022-11-16T06:08:42.917Z,6.78
2022-11-16T06:11:15.854Z,6.66
2022-11-16T06:13:45.391Z,6.74
2022-11-16T06:16:14.855Z,6.66
2022-11-16T06:18:48.248Z,6.76
2022-11-16T06:21:20.589Z,6.80
2022-11-16T06:23:51.121Z,6.88
2022-11-16T06:26:19.848Z,6.82
2022-11-16T06:28:50.223Z,6.60
2022-11-16T06:31:19.167Z,6.52
2022-11-16T06:33:47.833Z,6.60
2022-11-16T06:36:27.299Z,6.45
2022-11-16T06:38:59.548Z,6.63
2022-11-16T06:41:29.328Z,6.53
2022-11-16T06:43:58.238Z,6.73
2022-11-16T06:46:32.710Z,6.74
2022-11-16T06:49:01.596Z,6.76
2022-11-16T06:51:30.360Z,6.72
2022-11-16T06:54:01.759Z,6.78
2022-11-16T06:56:30.785Z,6.72
2022-11-16T06:59:00.468Z,6.82
2022-11-16T07:01:31.693Z,6.75
2022-11-16T07:04:11.914Z,6.88
2022-11-16T07:06:42.417Z,6.76
2022-11-16T07:09:15.086Z,6.94
2022-11-16T07:11:45.596Z,6.93
2022-11-16T07:14:16.064Z,7.08
2022-11-16T07:16:45.699Z,7.06
2022-11-16T07:19:14.732Z,7.04
2022-11-16T07:21:44.871Z,7.10
2022-11-16T07:24:19.192Z,7.14
2022-11-16T07:26:48.780Z,7.08
2022-11-16T07:29:22.532Z,7.29
2022-11-16T07:32:11.764Z,7.29
2022-11-16T07:35:00.463Z,7.28
2022-11-16T07:37:31.440Z,7.26
2022-11-16T07:40:01.955Z,7.30
2022-11-16T07:42:31.993Z,7.28
2022-11-16T07:45:23.587Z,7.23
2022-11-16T07:48:00.057Z,7.16
2022-11-16T07:50:54.905Z,7.20
2022-11-16T07:53:24.558Z,7.28
2022-11-16T07:55:55.746Z,6.91
2022-11-16T07:58:28.028Z,7.15
2022-11-16T08:01:05.787Z,7.21
2022-11-16T08:03:37.059Z,7.44
2022-11-16T08:06:12.804Z,7.43
2022-11-16T08:08:41.814Z,7.37
2022-11-16T08:11:13.720Z,7.41
2022-11-16T08:13:44.463Z,7.44
2022-11-16T08:16:16.621Z,7.46
2022-11-16T08:18:48.179Z,7.50
2022-11-16T08:21:19.707Z,7.40
2022-11-16T08:23:48.756Z,7.37
2022-11-16T08:26:22.133Z,7.43
2022-11-16T08:28:59.989Z,7.50
2022-11-16T08:31:33.035Z,7.43
2022-11-16T08:34:09.382Z,7.48
2022-11-16T08:36:44.393Z,7.47
2022-11-16T08:39:14.019Z,7.47
2022-11-16T08:41:44.422Z,7.32
2022-11-16T08:44:15.408Z,7.36
2022-11-16T08:46:47.261Z,7.48
2022-11-16T08:49:28.897Z,7.50
2022-11-16T08:51:57.917Z,7.57
2022-11-16T08:54:28.976Z,7.53
2022-11-16T08:56:59.438Z,7.56
2022-11-16T08:59:29.849Z,7.50
2022-11-16T09:02:04.627Z,7.47
2022-11-16T09:04:36.983Z,7.62
2022-11-16T09:07:05.935Z,7.67
2022-11-16T09:09:34.912Z,7.65
2022-11-16T09:12:05.242Z,7.72
2022-11-16T09:14:33.832Z,7.65
2022-11-16T09:17:02.618Z,7.69
2022-11-16T09:19:31.185Z,7.78
2022-11-16T09:22:00.112Z,7.84
2022-11-16T09:24:28.724Z,7.89
2022-11-16T09:27:01.525Z,7.90
2022-11-16T09:29:31.454Z,7.99
2022-11-16T09:32:00.648Z,7.99
2022-11-16T09:34:29.368Z,8.06
2022-11-16T09:36:57.959Z,8.02
2022-11-16T09:39:31.060Z,8.06
2022-11-16T09:42:22.787Z,8.09
2022-11-16T09:45:20.459Z,8.08
2022-11-16T09:47:52.917Z,8.12
2022-11-16T09:50:43.187Z,8.10
2022-11-16T09:53:33.903Z,8.06
2022-11-16T09:56:10.899Z,8.14
2022-11-16T09:58:50.967Z,8.32
2022-11-16T10:01:28.583Z,8.24
2022-11-16T10:04:08.581Z,8.14
2022-11-16T10:06:51.135Z,8.04
2022-11-16T10:09:20.355Z,8.10
2022-11-16T10:12:11.550Z,8.14
2022-11-16T10:15:23.544Z,8.20
2022-11-16T10:18:10.129Z,8.26
2022-11-16T10:21:37.406Z,8.41
2022-11-16T10:24:43.484Z,8.56
2022-11-16T10:27:45.228Z,8.63
2022-11-16T10:30:18.094Z,8.71
2022-11-16T10:32:52.140Z,8.84
2022-11-16T10:35:30.764Z,9.01
2022-11-16T10:38:04.036Z,8.80
2022-11-16T10:40:39.953Z,8.81
2022-11-16T10:43:15.528Z,8.85
2022-11-16T10:45:55.991Z,8.80
2022-11-16T10:48:37.492Z,8.78
2022-11-16T10:51:11.054Z,8.75
2022-11-16T10:53:42.558Z,8.81
2022-11-16T10:56:23.191Z,8.86
2022-11-16T10:58:58.582Z,8.86
2022-11-16T11:01:37.286Z,8.95
2022-11-16T11:04:23.641Z,8.93
2022-11-16T11:06:56.785Z,8.95
2022-11-16T11:09:31.479Z,8.96
2022-11-16T11:12:34.933Z,8.89
2022-11-16T11:15:26.285Z,8.99
2022-11-16T11:18:29.732Z,8.96
2022-11-16T11:21:14.030Z,8.97
2022-11-16T11:23:48.865Z,8.96
2022-11-16T11:26:37.219Z,8.93
2022-11-16T11:29:24.818Z,8.88
2022-11-16T11:31:56.330Z,8.86
2022-11-16T11:34:28.764Z,8.83
2022-11-16T11:37:02.547Z,8.65
2022-11-16T11:39:36.074Z,8.80
2022-11-16T11:42:23.529Z,8.94
2022-11-16T11:44:59.724Z,8.99
2022-11-16T11:47:57.793Z,8.96
2022-11-16T11:50:51.078Z,9.01
2022-11-16T11:53:48.514Z,8.98
2022-11-16T11:56:20.558Z,8.99
2022-11-16T11:58:53.639Z,8.99
2022-11-16T12:02:07.448Z,8.88
2022-11-16T12:05:47.203Z,8.93
2022-11-16T12:08:39.617Z,8.97
2022-11-16T12:11:17.335Z,8.98
2022-11-16T12:14:05.771Z,8.96
2022-11-16T12:16:44.106Z,8.85
2022-11-16T12:19:41.503Z,9.01
2022-11-16T12:22:36.859Z,9.19
2022-11-16T12:25:22.924Z,9.12
2022-11-16T12:28:11.900Z,9.01
2022-11-16T12:31:14.943Z,9.12
2022-11-16T12:33:59.252Z,9.05
2022-11-16T12:36:45.604Z,9.19
2022-11-16T12:39:25.384Z,9.07
2022-11-16T12:42:32.866Z,9.18
2022-11-16T12:45:32.955Z,9.18
2022-11-16T12:48:52.348Z,9.29
2022-11-16T12:51:42.690Z,9.28
2022-11-16T12:55:11.036Z,9.31
2022-11-16T12:57:46.511Z,9.37
2022-11-16T13:00:17.659Z,9.34
2022-11-16T13:03:20.064Z,9.28
2022-11-16T13:06:01.400Z,9.41
2022-11-16T13:08:46.640Z,9.45
2022-11-16T13:11:25.427Z,9.38
2022-11-16T13:14:02.176Z,9.27
2022-11-16T13:16:30.869Z,9.24
2022-11-16T13:19:04.731Z,9.22
2022-11-16T13:21:48.983Z,9.22
2022-11-16T13:24:31.669Z,9.20
2022-11-16T13:27:23.042Z,9.20
2022-11-16T13:30:00.475Z,9.36
2022-11-16T13:32:50.468Z,9.32
2022-11-16T13:35:21.042Z,9.33
2022-11-16T13:37:52.039Z,9.42
2022-11-16T13:40:30.553Z,9.56
2022-11-16T13:43:19.713Z,9.69
2022-11-16T13:46:00.426Z,9.75
2022-11-16T13:48:35.233Z,9.74
2022-11-16T13:51:09.357Z,9.82
2022-11-16T13:56:50.975Z,9.74
2022-11-16T13:59:28.259Z,9.64
2022-11-16T14:02:00.659Z,9.71
2022-11-16T14:04:57.896Z,9.60
2022-11-16T14:07:40.572Z,9.51
2022-11-16T14:10:10.261Z,9.50
2022-11-16T14:12:58.191Z,9.50
2022-11-16T14:15:33.889Z,9.56
2022-11-16T14:18:37.199Z,9.57
2022-11-16T14:21:24.483Z,9.35
2022-11-16T14:24:28.575Z,9.46
2022-11-16T14:27:15.671Z,9.53
2022-11-16T14:30:03.804Z,9.49
2022-11-16T14:32:41.424Z,9.52
2022-11-16T14:35:29.592Z,9.60
2022-11-16T14:38:03.118Z,9.71
2022-11-16T14:40:44.495Z,9.83
2022-11-16T14:43:22.689Z,9.80
2022-11-16T14:46:00.396Z,10.05
2022-11-16T14:48:29.982Z,9.94
2022-11-16T14:51:09.445Z,9.81
2022-11-16T14:53:43.697Z,9.70
2022-11-16T14:56:16.485Z,9.72
2022-11-16T14:58:53.953Z,9.58
2022-11-16T15:01:27.687Z,9.52
2022-11-16T15:04:02.761Z,9.44
2022-11-16T15:06:37.865Z,9.34
2022-11-16T15:09:07.320Z,9.26
2022-11-16T15:11:58.740Z,9.08
2022-11-16T15:14:31.261Z,9.02
2022-11-16T15:17:01.343Z,8.92
2022-11-16T15:19:31.984Z,9.04
2022-11-16T15:22:04.504Z,8.93
2022-11-16T15:24:35.616Z,8.81
2022-11-16T15:27:36.644Z,8.92
2022-11-16T15:30:16.646Z,8.92
2022-11-16T15:32:47.665Z,8.85
2022-11-16T15:35:23.466Z,8.72
2022-11-16T15:38:08.262Z,8.67
2022-11-16T15:40:37.158Z,8.68
2022-11-16T15:43:08.869Z,8.69
2022-11-16T15:45:39.208Z,8.71
2022-11-16T15:48:08.300Z,8.68
2022-11-16T15:50:37.167Z,8.70
2022-11-16T15:53:05.784Z,8.73
2022-11-16T15:55:39.145Z,8.66
2022-11-16T15:58:22.279Z,8.70
2022-11-16T16:00:50.944Z,8.71
2022-11-16T16:03:25.151Z,8.69
2022-11-16T16:05:56.531Z,8.76
2022-11-16T16:08:29.924Z,8.69
2022-11-16T16:11:11.089Z,8.76
2022-11-16T16:13:44.640Z,8.74
2022-11-16T16:16:36.179Z,8.73
2022-11-16T16:19:09.946Z,8.72
2022-11-16T16:21:45.450Z,8.75
2022-11-16T16:24:41.359Z,8.72
2022-11-16T16:27:17.148Z,8.75
2022-11-16T16:29:48.905Z,8.72
2022-11-16T16:32:26.827Z,8.71
2022-11-16T16:34:58.096Z,8.69
2022-11-16T16:37:29.010Z,8.68
2022-11-16T16:39:57.854Z,8.68
2022-11-16T16:42:26.878Z,8.69
2022-11-16T16:45:00.396Z,8.57
2022-11-16T16:47:29.748Z,8.65
2022-11-16T16:49:58.367Z,8.74
2022-11-16T16:52:27.701Z,8.70
2022-11-16T16:54:56.246Z,8.74
2022-11-16T16:57:24.875Z,8.62
2022-11-16T16:59:53.503Z,8.67
2022-11-16T17:02:25.503Z,8.69
2022-11-16T17:04:54.084Z,8.58
2022-11-16T17:07:22.767Z,8.66
2022-11-16T17:09:51.504Z,8.68
2022-11-16T17:12:20.106Z,8.56
2022-11-16T17:14:52.302Z,8.27
2022-11-16T17:17:24.814Z,8.51
2022-11-16T17:19:53.934Z,8.57
2022-11-16T17:22:23.095Z,8.66
2022-11-16T17:24:51.638Z,8.67
2022-11-16T17:27:20.448Z,8.67
2022-11-16T17:29:49.185Z,8.73
2022-11-16T17:32:17.879Z,8.67
2022-11-16T17:34:48.867Z,8.55
2022-11-16T17:37:17.492Z,8.41
2022-11-16T17:39:46.060Z,8.54
2022-11-16T17:42:14.582Z,8.62
2022-11-16T17:44:44.126Z,8.70
2022-11-16T17:47:13.998Z,8.64
2022-11-16T17:49:42.738Z,8.66
2022-11-16T17:52:12.764Z,8.59
2022-11-16T17:55:04.807Z,8.55
2022-11-16T17:57:33.319Z,8.62
2022-11-16T18:00:02.214Z,8.62
2022-11-16T18:02:33.977Z,8.51
2022-11-16T18:05:02.646Z,8.52
2022-11-16T18:07:34.120Z,8.53
2022-11-16T18:10:06.230Z,8.51
2022-11-16T18:12:35.571Z,8.52
2022-11-16T18:15:29.576Z,8.49
2022-11-16T18:17:54.333Z,8.44
2022-11-16T18:20:24.296Z,8.41
2022-11-16T18:22:54.720Z,8.48
2022-11-16T18:25:23.630Z,8.55
2022-11-16T18:27:53.990Z,8.56
2022-11-16T18:30:24.202Z,8.52
2022-11-16T18:32:52.907Z,8.60
2022-11-16T18:35:21.787Z,8.61
2022-11-16T18:37:50.502Z,8.52
2022-11-16T18:40:21.111Z,8.65
2022-11-16T18:42:49.884Z,8.65
2022-11-16T18:45:18.599Z,8.61
2022-11-16T18:47:47.220Z,8.49
2022-11-16T18:50:21.357Z,8.34
2022-11-16T18:52:52.870Z,8.34
2022-11-16T18:55:23.149Z,8.57
2022-11-16T18:57:51.917Z,8.59
2022-11-16T19:00:21.452Z,8.54
2022-11-16T19:02:51.235Z,8.49
2022-11-16T19:05:20.072Z,8.57
2022-11-16T19:07:48.786Z,8.63
2022-11-16T19:10:17.523Z,8.60
2022-11-16T19:12:47.838Z,8.65
2022-11-16T19:15:29.794Z,8.60
2022-11-16T19:18:19.788Z,8.60
2022-11-16T19:20:47.027Z,8.41
2022-11-16T19:23:15.786Z,8.51
2022-11-16T19:25:45.766Z,8.49
2022-11-16T19:28:16.999Z,8.50
2022-11-16T19:30:47.306Z,8.53
2022-11-16T19:33:17.198Z,8.54
2022-11-16T19:35:47.328Z,8.63
2022-11-16T19:38:37.734Z,8.63
2022-11-16T19:41:09.721Z,8.65
2022-11-16T19:43:46.600Z,8.63
2022-11-16T19:47:04.066Z,8.61
2022-11-16T19:50:07.383Z,8.55
2022-11-16T19:53:03.119Z,8.60
2022-11-16T19:55:59.492Z,8.64
2022-11-16T19:58:33.509Z,8.71
2022-11-16T20:01:43.738Z,8.58
2022-11-16T20:04:14.285Z,8.62
2022-11-16T20:07:04.635Z,8.63
2022-11-16T20:09:40.831Z,8.59
2022-11-16T20:12:10.824Z,8.62
2022-11-16T20:14:41.431Z,8.66
2022-11-16T20:17:15.422Z,8.67
2022-11-16T20:19:47.898Z,8.70
2022-11-16T20:22:31.882Z,8.77
2022-11-16T20:25:13.410Z,8.70
2022-11-16T20:28:01.279Z,8.77
2022-11-16T20:30:40.460Z,8.79
2022-11-16T20:33:12.071Z,8.86
2022-11-16T20:35:42.465Z,8.44
2022-11-16T20:38:16.571Z,8.53
2022-11-16T20:40:47.763Z,8.53
2022-11-16T20:43:22.630Z,8.56
2022-11-16T20:45:56.775Z,8.57
2022-11-16T20:48:31.950Z,8.50
2022-11-16T20:51:07.829Z,8.63
2022-11-16T20:54:16.462Z,8.71
2022-11-16T20:57:11.030Z,8.52
2022-11-16T21:00:20.268Z,8.66
2022-11-16T21:02:57.707Z,8.63
2022-11-16T21:05:39.701Z,8.56
2022-11-16T21:08:17.901Z,8.63
2022-11-16T21:10:54.232Z,8.69
2022-11-16T21:13:44.713Z,8.70
2022-11-16T21:16:47.538Z,8.72
2022-11-16T21:20:28.167Z,8.73
2022-11-16T21:23:05.002Z,8.55
2022-11-16T21:25:41.387Z,8.70
2022-11-16T21:28:49.912Z,8.75
2022-11-16T21:31:38.743Z,8.68
2022-11-16T21:34:11.194Z,8.58
2022-11-16T21:36:48.585Z,8.57
2022-11-16T21:39:29.375Z,8.73
2022-11-16T21:42:13.144Z,8.44
2022-11-16T21:45:11.263Z,8.41
2022-11-16T21:48:53.338Z,8.34
2022-11-16T21:51:57.869Z,8.51
2022-11-16T21:54:56.172Z,8.39
2022-11-16T21:57:25.724Z,8.48
2022-11-16T22:00:02.314Z,8.54
2022-11-16T22:02:43.275Z,8.64
2022-11-16T22:05:30.276Z,8.62
2022-11-16T22:07:59.148Z,8.68
2022-11-16T22:10:29.176Z,8.67
2022-11-16T22:12:57.819Z,8.74
2022-11-16T22:15:27.372Z,8.44
2022-11-16T22:17:56.096Z,8.47
2022-11-16T22:20:25.091Z,8.43
2022-11-16T22:22:54.081Z,8.48
2022-11-16T22:25:24.361Z,8.51
2022-11-16T22:28:21.718Z,8.42
2022-11-16T22:30:51.406Z,8.35
2022-11-16T22:33:21.505Z,8.37
2022-11-16T22:35:50.265Z,8.21
2022-11-16T22:38:18.742Z,8.30
2022-11-16T22:40:51.565Z,8.37
2022-11-16T22:43:24.447Z,8.27
2022-11-16T22:45:53.156Z,8.27
2022-11-16T22:48:21.684Z,8.12
2022-11-16T22:50:50.174Z,8.33
2022-11-16T22:53:18.686Z,8.36
2022-11-16T22:55:47.220Z,8.37
2022-11-16T22:58:15.720Z,8.38
2022-11-16T23:00:45.603Z,8.34
2022-11-16T23:03:14.160Z,8.43
2022-11-16T23:05:42.889Z,8.46
2022-11-16T23:08:11.372Z,8.35
2022-11-16T23:10:59.841Z,8.35
2022-11-16T23:13:45.978Z,8.37
2022-11-16T23:16:15.829Z,8.39
2022-11-16T23:18:44.379Z,8.40
2022-11-16T23:21:30.270Z,8.40
2022-11-16T23:24:19.139Z,8.39
2022-11-16T23:27:05.192Z,8.34
2022-11-16T23:29:33.883Z,8.48
2022-11-16T23:32:03.814Z,8.31
2022-11-16T23:34:32.408Z,8.36
2022-11-16T23:37:04.431Z,8.16
2022-11-16T23:39:33.342Z,7.94
2022-11-16T23:42:19.592Z,8.11
2022-11-16T23:44:48.154Z,8.14
2022-11-16T23:47:18.136Z,8.29
2022-11-16T23:49:46.665Z,8.35
2022-11-16T23:52:15.575Z,8.41
2022-11-16T23:54:44.152Z,8.39
2022-11-16T23:57:13.432Z,8.11
2022-11-16T23:59:42.011Z,8.13
